createdAt,value
2022-08-09T00:01:00.962Z,99984.47
2022-08-09T00:04:05.874Z,99968.88
2022-08-09T00:06:22.939Z,99952.66
2022-08-09T00:08:52.335Z,99949.03
2022-08-09T00:11:55.092Z,99959.63
2022-08-09T00:14:21.745Z,99952.34
2022-08-09T00:16:52.677Z,99929.31
2022-08-09T00:19:21.765Z,99970.44
2022-08-09T00:21:56.373Z,99993.44
2022-08-09T00:24:27.459Z,99989.47
2022-08-09T00:26:57.497Z,99976.22
2022-08-09T00:29:39.904Z,99957.97
2022-08-09T00:32:25.269Z,99943.59
2022-08-09T00:34:54.442Z,99974.91
2022-08-09T00:37:23.068Z,99970.94
2022-08-09T00:40:13.729Z,99980.38
2022-08-09T00:44:10.305Z,99965.94
2022-08-09T00:45:30.468Z,99971.75
2022-08-09T00:48:06.339Z,99963.78
2022-08-09T00:50:37.896Z,99938.94
2022-08-09T00:53:08.822Z,99905.81
2022-08-09T00:56:04.693Z,99886.44
2022-08-09T00:58:30.547Z,99909.63
2022-08-09T01:01:00.735Z,99899.19
2022-08-09T01:03:46.800Z,99946.25
2022-08-09T01:06:53.433Z,99903.97
2022-08-09T01:09:26.477Z,99892.41
2022-08-09T01:12:13.756Z,99859.25
2022-08-09T01:14:57.005Z,99888.88
2022-08-09T01:17:34.573Z,99847.97
2022-08-09T01:20:09.548Z,99838.03
2022-08-09T01:24:00.747Z,99895.81
2022-08-09T01:26:09.851Z,99912.06
2022-08-09T01:28:45.403Z,99869.00
2022-08-09T01:32:28.189Z,99898.31
2022-08-09T01:34:09.378Z,99895.00
2022-08-09T01:36:40.133Z,99901.63
2022-08-09T01:39:09.215Z,99899.00
2022-08-09T01:41:57.246Z,99898.50
2022-08-09T01:44:32.036Z,99876.81
2022-08-09T01:47:02.263Z,99823.47
2022-08-09T01:49:39.081Z,99889.34
2022-08-09T01:52:15.414Z,99819.78
2022-08-09T01:54:48.520Z,99814.97
2022-08-09T01:57:20.509Z,99873.22
2022-08-09T01:59:53.704Z,99838.16
2022-08-09T02:02:32.176Z,99871.38
2022-08-09T02:05:05.632Z,99883.97
2022-08-09T02:08:40.977Z,99852.41
2022-08-09T02:10:38.508Z,99843.66
2022-08-09T02:13:11.214Z,99811.50
2022-08-09T02:15:49.439Z,99879.03
2022-08-09T02:18:23.854Z,99864.47
2022-08-09T02:20:57.107Z,99841.59
2022-08-09T02:23:40.222Z,99827.69
2022-08-09T02:26:26.776Z,99893.25
2022-08-09T02:29:00.425Z,99877.66
2022-08-09T02:31:35.454Z,99880.97
2022-08-09T02:34:26.007Z,99877.66
2022-08-09T02:37:07.215Z,99847.53
2022-08-09T02:39:45.202Z,99876.44
2022-08-09T02:42:24.828Z,99803.50
2022-08-09T02:45:06.732Z,99816.38
2022-08-09T02:47:57.968Z,99882.72
2022-08-09T02:50:32.374Z,99833.41
2022-08-09T02:53:08.356Z,99883.84
2022-08-09T02:55:46.246Z,99867.13
2022-08-09T02:58:36.876Z,99864.97
2022-08-09T03:01:10.642Z,99830.13
2022-08-09T03:04:17.231Z,99800.53
2022-08-09T03:06:32.950Z,99859.69
2022-08-09T03:09:03.023Z,99808.75
2022-08-09T03:12:05.470Z,99842.50
2022-08-09T03:14:28.289Z,99850.91
2022-08-09T03:16:58.724Z,99853.47
2022-08-09T03:19:58.002Z,99802.53
2022-08-09T03:22:25.689Z,99825.66
2022-08-09T03:25:06.186Z,99837.94
2022-08-09T03:27:52.016Z,99854.78
2022-08-09T03:30:29.991Z,99819.88
2022-08-09T03:33:17.168Z,99813.16
2022-08-09T03:36:13.142Z,99813.94
2022-08-09T03:38:42.145Z,99797.44
2022-08-09T03:41:14.791Z,99784.53
2022-08-09T03:44:03.964Z,99838.50
2022-08-09T03:46:36.658Z,99868.09
2022-08-09T03:49:08.957Z,99861.47
2022-08-09T03:51:43.974Z,99868.06
2022-08-09T03:54:29.198Z,99868.38
2022-08-09T03:57:00.675Z,99806.03
2022-08-09T03:59:52.927Z,99799.38
2022-08-09T04:02:26.137Z,99869.78
2022-08-09T04:04:57.034Z,99840.81
2022-08-09T04:07:33.638Z,99872.81
2022-08-09T04:10:28.823Z,99870.66
2022-08-09T04:13:03.977Z,99869.34
2022-08-09T04:16:17.314Z,99868.50
2022-08-09T04:18:22.326Z,99870.16
2022-08-09T04:20:53.755Z,99864.88
2022-08-09T04:23:25.724Z,99874.47
2022-08-09T04:25:54.952Z,99875.47
2022-08-09T04:28:33.484Z,99875.28
2022-08-09T04:31:13.012Z,99880.59
2022-08-09T04:33:47.508Z,99882.06
2022-08-09T04:36:24.435Z,99848.97
2022-08-09T04:38:55.420Z,99858.88
2022-08-09T04:41:33.038Z,99858.25
2022-08-09T04:44:06.959Z,99878.47
2022-08-09T04:46:59.351Z,99870.13
2022-08-09T04:49:52.863Z,99881.44
2022-08-09T04:52:32.561Z,99888.88
2022-08-09T04:55:04.159Z,99881.44
2022-08-09T04:57:58.481Z,99870.13
2022-08-09T05:00:31.945Z,99894.84
2022-08-09T05:03:30.037Z,99896.84
2022-08-09T05:06:06.669Z,99896.50
2022-08-09T05:08:36.755Z,99898.00
2022-08-09T05:11:08.941Z,99896.19
2022-08-09T05:13:38.790Z,99898.34
2022-08-09T05:16:08.627Z,99894.69
2022-08-09T05:18:57.529Z,99873.97
2022-08-09T05:21:29.625Z,99894.03
2022-08-09T05:24:01.360Z,99889.38
2022-08-09T05:26:36.990Z,99874.50
2022-08-09T05:29:22.092Z,99887.56
2022-08-09T05:31:57.355Z,99895.34
2022-08-09T05:34:31.155Z,99891.72
2022-08-09T05:37:06.071Z,99873.13
2022-08-09T05:39:43.480Z,99900.00
2022-08-09T05:42:17.273Z,99898.69
2022-08-09T05:44:52.176Z,99898.16
2022-08-09T05:47:22.629Z,99896.34
2022-08-09T05:50:29.895Z,99827.81
2022-08-09T05:52:41.851Z,99907.63
2022-08-09T05:55:18.266Z,99906.81
2022-08-09T05:57:57.604Z,99825.66
2022-08-09T06:00:29.084Z,99887.75
2022-08-09T06:02:59.007Z,99908.97
2022-08-09T06:05:31.031Z,99910.78
2022-08-09T06:08:18.917Z,99918.56
2022-08-09T06:10:49.809Z,99892.38
2022-08-09T06:13:20.487Z,99916.25
2022-08-09T06:15:51.367Z,99911.59
2022-08-09T06:18:23.844Z,99917.72
2022-08-09T06:20:54.702Z,99883.41
2022-08-09T06:23:57.995Z,99923.69
2022-08-09T06:26:21.233Z,99847.47
2022-08-09T06:29:00.368Z,99906.28
2022-08-09T06:31:31.600Z,99864.69
2022-08-09T06:34:09.590Z,99874.09
2022-08-09T06:36:43.834Z,99844.28
2022-08-09T06:39:13.620Z,99855.88
2022-08-09T06:42:08.959Z,99890.09
2022-08-09T06:44:34.649Z,99896.69
2022-08-09T06:47:04.444Z,99874.34
2022-08-09T06:49:52.385Z,99916.38
2022-08-09T06:52:26.251Z,99843.66
2022-08-09T06:54:55.203Z,99897.94
2022-08-09T06:57:25.831Z,99923.38
2022-08-09T07:00:54.788Z,99922.69
2022-08-09T07:03:06.128Z,99910.75
2022-08-09T07:05:53.746Z,99917.09
2022-08-09T07:08:24.710Z,99922.38
2022-08-09T07:10:53.863Z,99921.28
2022-08-09T07:13:27.943Z,99920.66
2022-08-09T07:16:41.707Z,99905.91
2022-08-09T07:18:49.979Z,99918.28
2022-08-09T07:21:18.947Z,99921.50
2022-08-09T07:23:58.136Z,99923.16
2022-08-09T07:26:27.612Z,99922.22
2022-08-09T07:29:08.200Z,99927.63
2022-08-09T07:31:45.373Z,99865.88
2022-08-09T07:34:20.644Z,99869.34
2022-08-09T07:36:50.403Z,99915.34
2022-08-09T07:39:40.492Z,99886.09
2022-08-09T07:42:11.588Z,99861.97
2022-08-09T07:44:51.769Z,99922.09
2022-08-09T07:47:24.423Z,99935.22
2022-08-09T07:50:04.411Z,99896.75
2022-08-09T07:52:38.514Z,99911.75
2022-08-09T07:55:10.005Z,99926.31
2022-08-09T07:57:47.019Z,99849.81
2022-08-09T08:00:20.485Z,99842.63
2022-08-09T08:03:08.384Z,99885.91
2022-08-09T08:05:57.641Z,99824.81
2022-08-09T08:09:01.897Z,99896.31
2022-08-09T08:12:24.034Z,99856.03
2022-08-09T08:14:06.463Z,99877.03
2022-08-09T08:16:35.276Z,99827.16
2022-08-09T08:19:09.741Z,99832.84
2022-08-09T08:21:39.590Z,99847.75
2022-08-09T08:24:12.232Z,99840.31
2022-08-09T08:26:56.254Z,99882.72
2022-08-09T08:29:28.108Z,99891.66
2022-08-09T08:32:04.302Z,99864.63
2022-08-09T08:34:36.595Z,99844.56
2022-08-09T08:37:05.781Z,99870.31
2022-08-09T08:39:43.500Z,99900.56
2022-08-09T08:42:13.698Z,99880.06
2022-08-09T08:44:46.339Z,99892.94
2022-08-09T08:47:16.433Z,99898.19
2022-08-09T08:49:49.312Z,99855.03
2022-08-09T08:52:52.653Z,99892.03
2022-08-09T08:55:10.401Z,99831.94
2022-08-09T08:57:39.236Z,99889.38
2022-08-09T09:00:16.976Z,99871.50
2022-08-09T09:03:12.374Z,99853.34
2022-08-09T09:05:58.618Z,99837.66
2022-08-09T09:08:37.705Z,99895.25
2022-08-09T09:11:17.887Z,99872.66
2022-08-09T09:13:56.743Z,99854.81
2022-08-09T09:16:30.855Z,99849.31
2022-08-09T09:19:37.275Z,99888.41
2022-08-09T09:22:26.612Z,99880.16
2022-08-09T09:26:02.378Z,99878.28
2022-08-09T09:28:06.344Z,99853.72
2022-08-09T09:30:52.868Z,99871.06
2022-08-09T09:33:21.987Z,99810.53
2022-08-09T09:36:02.626Z,99814.00
2022-08-09T09:38:48.248Z,99824.81
2022-08-09T09:41:32.737Z,99799.81
2022-08-09T09:44:11.470Z,99813.91
2022-08-09T09:46:50.899Z,99847.72
2022-08-09T09:49:56.534Z,99820.53
2022-08-09T09:52:16.266Z,99846.41
2022-08-09T09:54:48.691Z,99866.63
2022-08-09T09:58:02.503Z,99813.53
2022-08-09T10:00:24.919Z,99860.25
2022-08-09T10:02:55.638Z,99833.75
2022-08-09T10:05:27.065Z,99853.69
2022-08-09T10:08:27.927Z,99855.63
2022-08-09T10:10:58.665Z,99789.41
2022-08-09T10:13:43.315Z,99810.50
2022-08-09T10:16:57.723Z,99805.31
2022-08-09T10:19:06.302Z,99781.72
2022-08-09T10:21:48.769Z,99778.94
2022-08-09T10:24:31.386Z,99836.25
2022-08-09T10:27:10.347Z,99808.78
2022-08-09T10:30:49.435Z,99829.59
2022-08-09T10:32:42.253Z,99827.56
2022-08-09T10:35:13.320Z,99796.94
2022-08-09T10:37:42.192Z,99763.31
2022-08-09T10:40:35.208Z,99802.88
2022-08-09T10:43:03.723Z,99785.91
2022-08-09T10:45:35.539Z,99773.47
2022-08-09T10:48:26.323Z,99783.38
2022-08-09T10:51:09.640Z,99782.03
2022-08-09T10:53:54.816Z,99765.63
2022-08-09T10:56:26.892Z,99763.31
2022-08-09T10:58:58.799Z,99771.09
2022-08-09T11:03:14.429Z,99795.88
2022-08-09T11:04:32.639Z,99801.31
2022-08-09T11:07:27.767Z,99790.44
2022-08-09T11:10:16.507Z,99790.44
2022-08-09T11:13:49.522Z,99782.25
2022-08-09T11:16:37.315Z,99792.53
2022-08-09T11:19:11.349Z,99782.03
2022-08-09T11:21:56.851Z,99769.75
2022-08-09T11:25:04.707Z,99765.97
2022-08-09T11:28:03.692Z,99784.47
2022-08-09T11:30:34.637Z,99776.78
2022-08-09T11:33:13.149Z,99773.31
2022-08-09T11:35:50.168Z,99778.22
2022-08-09T11:38:32.592Z,99753.00
2022-08-09T11:41:05.133Z,99778.19
2022-08-09T11:43:42.301Z,99765.88
2022-08-09T11:46:11.120Z,99772.44
2022-08-09T11:48:52.299Z,99758.41
2022-08-09T11:53:00.836Z,99776.91
2022-08-09T11:54:29.032Z,99735.06
2022-08-09T11:57:47.363Z,99773.97
2022-08-09T12:00:30.783Z,99768.34
2022-08-09T12:03:50.254Z,99770.75
2022-08-09T12:05:52.882Z,99771.63
2022-08-09T12:08:24.039Z,99766.50
2022-08-09T12:10:55.654Z,99771.28
2022-08-09T12:14:07.941Z,99779.31
2022-08-09T12:16:37.383Z,99767.84
2022-08-09T12:19:09.670Z,99772.34
2022-08-09T12:21:50.720Z,99773.38
2022-08-09T12:24:25.654Z,99772.97
2022-08-09T12:29:13.811Z,99764.44
2022-08-09T12:30:01.771Z,99748.28
2022-08-09T12:32:44.235Z,99762.56
2022-08-09T12:35:19.153Z,99749.13
2022-08-09T12:37:51.823Z,99759.34
2022-08-09T12:40:23.385Z,99763.56
2022-08-09T12:42:54.165Z,99748.53
2022-08-09T12:45:33.707Z,99742.69
2022-08-09T12:48:04.597Z,99758.16
2022-08-09T12:50:35.796Z,99747.13
2022-08-09T12:53:09.651Z,99747.28
2022-08-09T12:56:15.156Z,99753.72
2022-08-09T12:58:42.499Z,99750.72
2022-08-09T13:01:26.512Z,99737.16
2022-08-09T13:03:59.718Z,99740.94
2022-08-09T13:06:34.044Z,99741.16
2022-08-09T13:09:09.060Z,99726.03
2022-08-09T13:11:42.266Z,99737.44
2022-08-09T13:14:40.942Z,99733.94
2022-08-09T13:17:08.594Z,99724.28
2022-08-09T13:20:09.040Z,99742.13
2022-08-09T13:22:35.195Z,99741.59
2022-08-09T13:25:11.899Z,99734.41
2022-08-09T13:27:48.603Z,99732.50
2022-08-09T13:30:50.819Z,99724.22
2022-08-09T13:33:23.993Z,99732.03
2022-08-09T13:36:41.467Z,99740.34
2022-08-09T13:38:57.506Z,99736.63
2022-08-09T13:41:58.353Z,99716.00
2022-08-09T13:44:17.881Z,99723.25
2022-08-09T13:47:29.789Z,99725.72
2022-08-09T13:49:55.787Z,99729.13
2022-08-09T13:52:26.027Z,99728.22
2022-08-09T13:55:00.115Z,99727.84
2022-08-09T13:57:39.317Z,99725.22
2022-08-09T14:00:12.985Z,99725.72
2022-08-09T14:03:03.222Z,99729.41
2022-08-09T14:06:00.034Z,99728.53
2022-08-09T14:08:21.631Z,99726.25
2022-08-09T14:10:52.883Z,99716.53
2022-08-09T14:14:15.945Z,99708.81
2022-08-09T14:16:16.195Z,99729.91
2022-08-09T14:18:49.822Z,99727.75
2022-08-09T14:21:22.493Z,99700.16
2022-08-09T14:23:55.263Z,99721.13
2022-08-09T14:26:25.394Z,99693.50
2022-08-09T14:29:07.953Z,99715.72
2022-08-09T14:31:54.759Z,99712.72
2022-08-09T14:34:31.134Z,99711.88
2022-08-09T14:37:07.428Z,99717.34
2022-08-09T14:39:45.562Z,99708.00
2022-08-09T14:42:31.670Z,99718.44
2022-08-09T14:46:58.524Z,99707.81
2022-08-09T14:47:58.041Z,99716.44
2022-08-09T14:50:32.772Z,99710.59
2022-08-09T14:53:02.610Z,99706.44
2022-08-09T14:55:32.787Z,99687.84
2022-08-09T14:58:03.644Z,99694.50
2022-08-09T15:00:36.486Z,99703.78
2022-08-09T15:03:07.032Z,99699.47
2022-08-09T15:05:36.503Z,99699.16
2022-08-09T15:08:05.892Z,99687.22
2022-08-09T15:10:39.859Z,99703.00
2022-08-09T15:13:08.755Z,99707.28
2022-08-09T15:15:39.742Z,99688.19
2022-08-09T15:18:14.613Z,99685.38
2022-08-09T15:21:56.529Z,99700.56
2022-08-09T15:24:05.612Z,99697.75
2022-08-09T15:26:30.736Z,99695.78
2022-08-09T15:29:04.118Z,99687.13
2022-08-09T15:31:42.026Z,99675.94
2022-08-09T15:34:31.827Z,99689.63
2022-08-09T15:37:04.236Z,99688.72
2022-08-09T15:39:43.749Z,99688.97
2022-08-09T15:42:22.310Z,99681.31
2022-08-09T15:44:51.414Z,99673.84
2022-08-09T15:47:22.645Z,99680.41
2022-08-09T15:50:04.234Z,99683.50
2022-08-09T15:52:35.184Z,99688.34
2022-08-09T15:55:04.178Z,99691.66
2022-08-09T15:57:35.147Z,99691.22
2022-08-09T16:00:08.406Z,99690.34
2022-08-09T16:02:38.797Z,99686.06
2022-08-09T16:05:08.849Z,99672.59
2022-08-09T16:07:45.737Z,99690.28
2022-08-09T16:10:38.591Z,99694.88
2022-08-09T16:13:03.746Z,99695.22
2022-08-09T16:16:04.629Z,99699.78
2022-08-09T16:18:22.280Z,99697.84
2022-08-09T16:20:51.445Z,99690.16
2022-08-09T16:23:21.619Z,99694.22
2022-08-09T16:25:50.233Z,99696.94
2022-08-09T16:28:18.759Z,99688.69
2022-08-09T16:30:58.814Z,99689.16
2022-08-09T16:33:30.947Z,99685.88
2022-08-09T16:36:10.736Z,99685.88
2022-08-09T16:38:43.151Z,99695.28
2022-08-09T16:41:16.776Z,99698.00
2022-08-09T16:43:47.050Z,99702.72
2022-08-09T16:46:18.528Z,99700.09
2022-08-09T16:48:59.972Z,99699.03
2022-08-09T16:51:37.510Z,99687.41
2022-08-09T16:54:28.299Z,99698.81
2022-08-09T16:56:55.031Z,99669.19
2022-08-09T16:59:25.056Z,99688.69
2022-08-09T17:01:53.949Z,99679.75
2022-08-09T17:04:28.878Z,99668.06
2022-08-09T17:08:41.664Z,99662.00
2022-08-09T17:09:47.582Z,99683.78
2022-08-09T17:12:17.063Z,99682.44
2022-08-09T17:14:46.369Z,99694.13
2022-08-09T17:17:26.234Z,99697.47
2022-08-09T17:20:28.298Z,99696.81
2022-08-09T17:22:52.063Z,99698.56
2022-08-09T17:25:23.527Z,99694.22
2022-08-09T17:27:54.394Z,99693.72
2022-08-09T17:30:25.701Z,99691.91
2022-08-09T17:33:00.932Z,99677.94
2022-08-09T17:35:41.140Z,99667.44
2022-08-09T17:38:32.654Z,99685.53
2022-08-09T17:41:00.815Z,99683.00
2022-08-09T17:43:35.087Z,99689.00
2022-08-09T17:46:07.095Z,99692.94
2022-08-09T17:48:39.476Z,99687.06
2022-08-09T17:51:17.252Z,99685.63
2022-08-09T17:53:51.559Z,99690.81
2022-08-09T17:56:21.657Z,99694.44
2022-08-09T17:58:50.199Z,99703.66
2022-08-09T18:01:22.572Z,99707.50
2022-08-09T18:03:54.235Z,99703.66
2022-08-09T18:06:32.275Z,99716.25
2022-08-09T18:09:03.526Z,99701.97
2022-08-09T18:12:05.727Z,99700.03
2022-08-09T18:14:23.597Z,99717.16
2022-08-09T18:16:53.983Z,99718.75
2022-08-09T18:20:55.070Z,99717.28
2022-08-09T18:22:17.003Z,99717.72
2022-08-09T18:24:46.713Z,99716.88
2022-08-09T18:27:49.217Z,99718.81
2022-08-09T18:30:42.267Z,99722.84
2022-08-09T18:32:54.962Z,99730.13
2022-08-09T18:35:59.234Z,99729.06
2022-08-09T18:38:14.287Z,99720.03
2022-08-09T18:40:45.126Z,99730.78
2022-08-09T18:43:15.755Z,99724.66
2022-08-09T18:46:49.086Z,99720.50
2022-08-09T18:48:33.731Z,99732.97
2022-08-09T18:51:04.305Z,99725.88
2022-08-09T18:53:56.445Z,99727.66
2022-08-09T18:56:27.816Z,99740.19
2022-08-09T18:58:57.141Z,99732.03
2022-08-09T19:01:26.095Z,99740.97
2022-08-09T19:04:06.380Z,99731.72
2022-08-09T19:06:38.393Z,99746.38
2022-08-09T19:09:13.633Z,99744.25
2022-08-09T19:11:57.770Z,99747.38
2022-08-09T19:14:29.123Z,99753.13
2022-08-09T19:16:58.133Z,99752.22
2022-08-09T19:19:28.246Z,99738.50
2022-08-09T19:22:07.165Z,99745.28
2022-08-09T19:25:09.925Z,99742.63
2022-08-09T19:27:28.669Z,99743.75
2022-08-09T19:30:21.497Z,99750.16
2022-08-09T19:32:46.197Z,99751.41
2022-08-09T19:35:26.075Z,99756.41
2022-08-09T19:37:57.844Z,99746.56
2022-08-09T19:40:33.958Z,99760.16
2022-08-09T19:43:10.334Z,99761.41
2022-08-09T19:45:44.902Z,99766.56
2022-08-09T19:48:15.892Z,99768.41
2022-08-09T19:51:04.814Z,99760.63
2022-08-09T19:53:45.229Z,99759.41
2022-08-09T19:56:17.417Z,99767.25
2022-08-09T19:59:40.110Z,99747.06
2022-08-09T20:01:53.228Z,99763.53
2022-08-09T20:04:40.518Z,99765.22
2022-08-09T20:07:22.417Z,99759.88
2022-08-09T20:09:51.334Z,99762.56
2022-08-09T20:12:29.801Z,99753.31
2022-08-09T20:16:35.815Z,99768.75
2022-08-09T20:17:54.913Z,99768.94
2022-08-09T20:20:24.634Z,99778.00
2022-08-09T20:22:56.074Z,99781.69
2022-08-09T20:25:25.420Z,99768.13
2022-08-09T20:27:55.709Z,99786.44
2022-08-09T20:30:25.024Z,99780.66
2022-08-09T20:32:53.871Z,99788.66
2022-08-09T20:35:22.589Z,99790.31
2022-08-09T20:38:20.965Z,99798.50
2022-08-09T20:40:41.150Z,99786.97
2022-08-09T20:43:18.404Z,99801.81
2022-08-09T20:45:59.710Z,99805.25
2022-08-09T20:48:31.810Z,99805.41
2022-08-09T20:51:01.354Z,99801.09
2022-08-09T20:53:36.348Z,99810.16
2022-08-09T20:56:20.397Z,99814.66
2022-08-09T20:58:57.836Z,99809.88
2022-08-09T21:01:34.931Z,99800.78
2022-08-09T21:05:54.125Z,99806.50
2022-08-09T21:07:11.678Z,99806.88
2022-08-09T21:09:55.401Z,99809.75
2022-08-09T21:15:16.467Z,99806.75
2022-08-09T21:18:22.356Z,99801.38
2022-08-09T21:20:35.725Z,99801.72
2022-08-09T21:23:04.997Z,99804.00
2022-08-09T21:25:59.156Z,99806.44
2022-08-09T21:28:33.805Z,99807.47
2022-08-09T21:31:16.880Z,99806.19
2022-08-09T21:33:50.358Z,99803.28
2022-08-09T21:36:23.210Z,99799.94
2022-08-09T21:38:57.782Z,99808.97
2022-08-09T21:42:05.178Z,99802.19
2022-08-09T21:44:34.404Z,99797.88
2022-08-09T21:47:08.687Z,99804.25
2022-08-09T21:49:40.246Z,99809.59
2022-08-09T21:52:14.942Z,99800.38
2022-08-09T21:55:03.132Z,99782.72
2022-08-09T21:57:39.513Z,99800.06
2022-08-09T22:00:25.968Z,99796.50
2022-08-09T22:02:59.497Z,99798.56
2022-08-09T22:05:36.109Z,99793.44
2022-08-09T22:08:13.842Z,99787.50
2022-08-09T22:11:50.228Z,99794.22
2022-08-09T22:13:34.936Z,99798.03
2022-08-09T22:16:07.850Z,99795.97
2022-08-09T22:18:54.484Z,99798.47
2022-08-09T22:21:27.377Z,99789.88
2022-08-09T22:24:16.925Z,99798.41
2022-08-09T22:26:51.045Z,99798.03
2022-08-09T22:29:26.814Z,99799.34
2022-08-09T22:32:01.246Z,99790.53
2022-08-09T22:34:31.238Z,99800.44
2022-08-09T22:37:00.483Z,99799.53
2022-08-09T22:39:55.781Z,99802.75
2022-08-09T22:42:22.692Z,99805.63
2022-08-09T22:45:00.141Z,99809.66
2022-08-09T22:48:16.013Z,99797.94
2022-08-09T22:50:33.315Z,99781.56
2022-08-09T22:53:03.629Z,99791.59
2022-08-09T22:56:06.249Z,99787.66
2022-08-09T22:58:33.150Z,99781.50
2022-08-09T23:01:03.568Z,99785.00
2022-08-09T23:04:03.866Z,99784.38
2022-08-09T23:06:29.961Z,99784.66
2022-08-09T23:09:06.164Z,99763.91
2022-08-09T23:11:35.601Z,99768.97
2022-08-09T23:14:10.261Z,99772.09
2022-08-09T23:16:46.532Z,99780.09
2022-08-09T23:19:15.120Z,99771.91
2022-08-09T23:21:44.986Z,99753.69
2022-08-09T23:24:13.771Z,99769.97
2022-08-09T23:26:42.642Z,99767.69
2022-08-09T23:29:13.947Z,99750.72
2022-08-09T23:31:43.137Z,99768.59
2022-08-09T23:34:11.905Z,99759.16
2022-08-09T23:36:41.095Z,99766.97
2022-08-09T23:39:11.113Z,99764.22
2022-08-09T23:41:39.638Z,99761.94
2022-08-09T23:44:08.186Z,99764.97
2022-08-09T23:46:36.710Z,99764.16
2022-08-09T23:49:05.500Z,99754.78
2022-08-09T23:51:34.118Z,99733.59
2022-08-09T23:54:03.534Z,99756.63
2022-08-09T23:56:52.394Z,99748.47
2022-08-09T23:59:24.486Z,99746.09
